createdAt,value
2017-11-21T00:00:09.320Z,19.04
2017-11-21T00:02:36.530Z,19.04
2017-11-21T00:05:24.948Z,19.02
2017-11-21T00:07:52.141Z,19.03
2017-11-21T00:10:27.068Z,19.02
2017-11-21T00:12:55.148Z,19.01
2017-11-21T00:15:22.360Z,19.00
2017-11-21T00:17:49.564Z,18.99
2017-11-21T00:20:16.786Z,18.99
2017-11-21T00:22:44.010Z,18.97
2017-11-21T00:25:11.230Z,18.96
2017-11-21T00:27:38.476Z,18.96
2017-11-21T00:30:05.699Z,18.95
2017-11-21T00:32:32.937Z,18.95
2017-11-21T00:35:00.196Z,18.95
2017-11-21T00:37:27.444Z,18.93
2017-11-21T00:43:20.295Z,18.90
2017-11-21T00:46:04.472Z,18.91
2017-11-21T00:51:17.644Z,18.89
2017-11-21T00:53:44.861Z,18.89
2017-11-21T00:56:12.067Z,18.88
2017-11-21T00:58:39.419Z,18.87
2017-11-21T01:01:06.598Z,18.87
2017-11-21T01:06:23.199Z,18.86
2017-11-21T01:08:50.487Z,18.85
2017-11-21T01:11:17.717Z,18.84
2017-11-21T01:13:44.948Z,18.83
2017-11-21T01:16:12.183Z,18.83
2017-11-21T01:18:39.376Z,18.82
2017-11-21T01:21:06.549Z,18.82
2017-11-21T01:23:33.811Z,18.80
2017-11-21T01:26:01.028Z,18.81
2017-11-21T01:28:28.219Z,18.80
2017-11-21T01:30:55.459Z,18.79
2017-11-21T01:33:22.732Z,18.78
2017-11-21T01:35:50.607Z,18.79
2017-11-21T01:38:17.768Z,18.77
2017-11-21T01:40:45.091Z,18.76
2017-11-21T01:43:12.276Z,18.76
2017-11-21T01:45:39.706Z,18.75
2017-11-21T01:48:07.003Z,18.75
2017-11-21T01:50:34.212Z,18.72
2017-11-21T01:53:01.469Z,18.73
2017-11-21T01:55:28.811Z,18.73
2017-11-21T01:57:55.993Z,18.72
2017-11-21T02:00:23.200Z,18.72
2017-11-21T02:02:50.513Z,18.72
2017-11-21T02:05:18.098Z,18.76
2017-11-21T02:07:45.350Z,18.69
2017-11-21T02:10:25.295Z,18.60
2017-11-21T02:12:52.492Z,18.52
2017-11-21T02:15:19.691Z,18.50
2017-11-21T02:17:46.958Z,18.47
2017-11-21T02:20:14.426Z,18.46
2017-11-21T02:22:41.639Z,18.43
2017-11-21T02:25:08.869Z,18.42
2017-11-21T02:27:36.152Z,18.35
2017-11-21T02:30:03.382Z,18.35
2017-11-21T02:32:30.624Z,18.38
2017-11-21T02:34:57.792Z,18.35
2017-11-21T02:37:25.023Z,18.34
2017-11-21T02:39:52.253Z,18.31
2017-11-21T02:42:19.432Z,18.32
2017-11-21T02:45:05.157Z,18.35
2017-11-21T02:47:32.455Z,18.33
2017-11-21T02:49:59.725Z,18.33
2017-11-21T02:52:26.965Z,18.31
2017-11-21T02:54:54.273Z,18.33
2017-11-21T03:00:02.139Z,18.34
2017-11-21T03:02:29.753Z,18.32
2017-11-21T03:04:56.960Z,18.32
2017-11-21T03:07:24.217Z,18.34
2017-11-21T03:09:51.408Z,18.33
2017-11-21T03:12:18.671Z,18.36
2017-11-21T03:14:45.936Z,18.34
2017-11-21T03:17:13.179Z,18.31
2017-11-21T03:19:40.406Z,18.35
2017-11-21T03:22:07.847Z,18.34
2017-11-21T03:24:35.070Z,18.35
2017-11-21T03:27:11.215Z,18.33
2017-11-21T03:29:38.475Z,18.33
2017-11-21T03:32:05.683Z,18.31
2017-11-21T03:34:32.957Z,18.32
2017-11-21T03:37:00.186Z,18.33
2017-11-21T03:39:27.540Z,18.33
2017-11-21T03:44:30.046Z,18.32
2017-11-21T03:46:57.320Z,18.32
2017-11-21T03:49:24.497Z,18.33
2017-11-21T03:51:51.803Z,18.35
2017-11-21T03:54:40.913Z,18.33
2017-11-21T03:57:08.157Z,18.35
2017-11-21T03:59:35.308Z,18.35
2017-11-21T04:02:02.629Z,18.34
2017-11-21T04:04:29.859Z,18.33
2017-11-21T04:07:15.802Z,18.34
2017-11-21T04:09:42.988Z,18.37
2017-11-21T04:12:10.316Z,18.46
2017-11-21T04:14:37.543Z,18.52
2017-11-21T04:17:04.705Z,18.59
2017-11-21T04:19:42.338Z,18.64
2017-11-21T04:22:09.566Z,18.73
2017-11-21T04:24:36.729Z,18.81
2017-11-21T04:27:03.954Z,18.87
2017-11-21T04:29:41.488Z,18.91
2017-11-21T04:32:08.756Z,18.94
2017-11-21T04:34:36.031Z,18.97
2017-11-21T04:37:24.515Z,19.01
2017-11-21T04:39:51.802Z,19.04
2017-11-21T04:42:19.000Z,19.07
2017-11-21T04:44:46.232Z,19.09
2017-11-21T04:47:13.524Z,19.13
2017-11-21T04:49:40.769Z,19.16
2017-11-21T05:23:01.427Z,19.48
2017-11-21T05:25:28.656Z,19.47
2017-11-21T05:27:55.882Z,19.47
2017-11-21T05:30:23.173Z,19.49
2017-11-21T05:32:50.355Z,19.52
2017-11-21T05:35:17.634Z,19.52
2017-11-21T05:37:44.952Z,19.54
2017-11-21T05:40:12.205Z,19.55
2017-11-21T05:45:12.852Z,19.57
2017-11-21T05:47:40.154Z,19.59
2017-11-21T05:50:07.415Z,19.62
2017-11-21T05:52:34.640Z,19.67
2017-11-21T05:55:01.902Z,19.68
2017-11-21T05:57:29.151Z,19.70
2017-11-21T05:59:56.716Z,19.73
2017-11-21T06:02:23.979Z,19.78
2017-11-21T06:04:53.046Z,19.80
2017-11-21T06:07:20.277Z,19.83
2017-11-21T06:09:47.581Z,19.86
2017-11-21T06:12:14.791Z,19.89
2017-11-21T06:14:42.024Z,19.92
2017-11-21T06:17:09.316Z,19.94
2017-11-21T06:19:56.881Z,19.97
2017-11-21T06:22:24.402Z,20.02
2017-11-21T06:24:51.647Z,20.05
2017-11-21T11:05:54.946Z,22.74
2017-11-21T11:08:22.632Z,22.78
2017-11-21T11:10:49.882Z,22.80
2017-11-21T11:13:17.134Z,22.81
2017-11-21T11:15:44.399Z,22.82
2017-11-21T11:18:11.715Z,22.84
2017-11-21T11:20:59.920Z,22.86
2017-11-21T11:26:33.500Z,22.90
2017-11-21T11:29:03.179Z,22.90
2017-11-21T11:31:30.698Z,22.92
2017-11-21T11:36:32.659Z,22.94
2017-11-21T11:39:00.121Z,22.94
2017-11-21T11:46:51.433Z,22.97
2017-11-21T14:07:59.129Z,23.23
2017-11-21T15:37:44.777Z,23.15
2017-11-21T15:40:12.092Z,23.15
2017-11-21T22:43:45.907Z,20.82
2017-11-21T22:46:13.166Z,20.80
2017-11-21T22:48:40.482Z,20.77
2017-11-21T22:51:07.668Z,20.77
2017-11-21T22:53:34.958Z,20.76
2017-11-21T22:56:02.233Z,20.75
2017-11-21T22:58:29.480Z,20.73
2017-11-21T23:00:56.737Z,20.73
2017-11-21T23:03:23.946Z,20.69
2017-11-21T23:05:51.161Z,20.69
2017-11-21T23:08:18.348Z,20.69
2017-11-21T23:10:45.598Z,20.67
2017-11-21T23:13:12.748Z,20.67
2017-11-21T23:15:40.058Z,20.66
2017-11-21T23:18:07.295Z,20.64
2017-11-21T23:20:34.497Z,20.63
2017-11-21T23:23:01.739Z,20.61
2017-11-21T23:25:28.923Z,20.60
2017-11-21T23:27:56.816Z,20.58
2017-11-21T23:30:24.082Z,20.56
2017-11-21T23:32:51.269Z,20.55
2017-11-21T23:35:18.477Z,20.54
2017-11-21T23:37:45.722Z,20.54
2017-11-21T23:40:12.945Z,20.54
2017-11-21T23:42:40.138Z,20.53
2017-11-21T23:45:07.385Z,20.52
2017-11-21T23:47:34.583Z,20.51
2017-11-21T23:50:01.817Z,20.51
2017-11-21T23:52:29.028Z,20.49
2017-11-21T23:54:56.212Z,20.49
2017-11-21T23:57:23.381Z,20.47
2017-11-21T23:59:50.576Z,20.46
